Pagina principale
METAR-TAF:

METAR-TAF

Aeroporti :

Aeroporto militare Mario de Bernardi

Pratica Di Mare, Italia

latitudine: 41-39N, longitudine: 012-27E, altezza: 6 m

Osservazione

Il bollettino è stato emesso 45 minuti fa, alle 21:55 UTC
Vento 4 kt da nord-est
Temperature 14°C
Umidità 100%
Pressione 1027 hPa
Visibilità 10 km o più
nessuna nube inferiore a 1500 m e nessun cumulonembo

METAR: LIRE 122155Z 04004KT CAVOK 14/14 Q1027 RMK SKC VIS MIN 9999 WIND THR13 04002KT WIND THR31 /////KT BLU

Ora: 23:40 (22:40 UTC)

Previsione

Il bollettino è stato emesso 2 ore e 40 minuti fa, alle 20:00 UTC
Previsione valida dal 12 alle 21 UTC al 13 alle 06 UTC
Vento 3 kt da direzioni variabili
Visibilità: 8000 m
Poco nuvoloso ad un'altezza di 4000 ft

TAF: LIRE 122000Z 1221/1306 VRB03KT 8000 FEW040

Osservazioni e previsioni meteorologiche di più di 4000 aeroporti (messaggi METAR e TAF).

Le stazioni disponibili sono rappresentate dai dischi gialli e rossi sulla carta.

Puntare il mouse per vedere il nome della stazione.

Clicca sopra per visualizzare le osservazioni e previsioni meteorologiche.

Per cambiare la mappa : fare clic sui pulsanti verdi con una croce nera per ingrandire, il pulsante verde con un trattino per diminuire, o sulla freccia verde per le mappe adiacenti.


METAR-TAF: